Tuesday, April 24, 2018, 4:30 AM EDT
Back to Local

KFMH, Otis Air National Guard Base

Location: Mashpee, MA, United States Lat: 41.65
Local Time: 4:30 AM EDT ( 8:30 GMT) Lon: -70.517
Time Zone: US/Eastern Elev: 131 ft

Show me the last for .
Show Decoded

2018-04-24 04:15 METAR KFMH 240815Z AUTO 00000KT 10SM M00/M01 A3044 RMK AO2 =
2018-04-24 03:55 METAR KFMH 240755Z AUTO 00000KT 10SM 01/M01 A3044 RMK AO2 =
2018-04-24 03:35 METAR KFMH 240735Z AUTO 21003KT 10SM 01/M00 A3044 RMK AO2 =
2018-04-24 03:15 METAR KFMH 240715Z AUTO 00000KT 10SM 00/M01 A3044 RMK AO2 =
2018-04-24 02:55 METAR KFMH 240655Z AUTO 00000KT 10SM M01/M02 A3044 RMK AO2 =
2018-04-24 02:35 METAR KFMH 240635Z AUTO 00000KT 10SM 00/M01 A3044 RMK AO2 =
2018-04-24 02:15 METAR KFMH 240615Z AUTO 00000KT 10SM 00/M01 A3044 RMK AO2 =
2018-04-24 01:55 METAR KFMH 240555Z AUTO 00000KT 10SM M00/M01 A3045 RMK AO2 =
2018-04-24 01:35 METAR KFMH 240535Z AUTO 00000KT 10SM 01/00 A3045 RMK AO2 =
2018-04-24 01:15 METAR KFMH 240515Z AUTO 00000KT 10SM 01/00 A3046 RMK AO2 =
2018-04-24 00:55 METAR KFMH 240455Z AUTO 00000KT 10SM CLR 01/M00 A3047 RMK AO2 =
2018-04-24 00:35 METAR KFMH 240435Z AUTO 00000KT 10SM CLR 01/M01 A3048 RMK AO2 =
2018-04-24 00:15 METAR KFMH 240415Z AUTO 00000KT 10SM 01/M00 A3047 RMK AO2 =
2018-04-23 23:55 METAR KFMH 240355Z AUTO 00000KT 10SM 02/M01 A3046 RMK AO2 =
2018-04-23 23:35 METAR KFMH 240335Z AUTO 00000KT 10SM 02/M00 A3046 RMK AO2 =
2018-04-23 23:15 METAR KFMH 240315Z AUTO 00000KT 10SM 03/00 A3048 RMK AO2 =
2018-04-23 22:55 METAR KFMH 240255Z AUTO 29005KT 10SM 02/M01 A3048 RMK AO2 =
2018-04-23 22:35 METAR KFMH 240235Z AUTO 22003KT 10SM 04/01 A3048 RMK AO2 =
2018-04-23 22:15 METAR KFMH 240215Z AUTO 15005KT 10SM 03/00 A3047 RMK AO2 =
2018-04-23 21:55 METAR KFMH 240155Z AUTO 15004KT 10SM CLR 05/01 A3048 RMK AO2 =
2018-04-23 21:35 METAR KFMH 240135Z AUTO 19004KT 10SM CLR 05/00 A3049 RMK AO2 =
2018-04-23 21:15 METAR KFMH 240115Z AUTO 21006KT 10SM CLR 06/M00 A3049 RMK AO2 =
2018-04-23 20:55 METAR KFMH 240055Z AUTO 20005KT 10SM CLR 06/00 A3049 RMK AO2 =
2018-04-23 20:35 METAR KFMH 240035Z AUTO 20006KT 10SM CLR 06/M00 A3048 RMK AO2 =
2018-04-23 20:15 METAR KFMH 240015Z AUTO 18006KT 10SM CLR 07/M01 A3047 RMK AO2 =
2018-04-23 19:55 METAR KFMH 232355Z AUTO 20006KT 10SM CLR 08/M01 A3048 RMK AO2 =
2018-04-23 19:35 METAR KFMH 232335Z AUTO 18008KT 10SM CLR 09/M01 A3047 RMK AO2 =
2018-04-23 19:15 METAR KFMH 232315Z AUTO 18008KT 10SM CLR 09/M01 A3047 RMK AO2 =
2018-04-23 18:55 METAR KFMH 232255Z AUTO 17007KT 10SM CLR 10/M04 A3047 RMK AO2 =
2018-04-23 18:35 METAR KFMH 232235Z AUTO 18009KT 10SM CLR 10/M07 A3047 RMK AO2 =
2018-04-23 18:15 METAR KFMH 232215Z AUTO 15010KT 10SM CLR 11/M09 A3047 RMK AO2 =
2018-04-23 17:55 METAR KFMH 232155Z AUTO 18010KT 10SM CLR 12/M08 A3046 RMK AO2 =
2018-04-23 17:35 METAR KFMH 232135Z AUTO 14010KT 10SM CLR 12/M09 A3046 RMK AO2 =
2018-04-23 17:15 METAR KFMH 232115Z AUTO 13011KT 10SM CLR 12/M09 A3046 RMK AO2 =
2018-04-23 16:55 METAR KFMH 232055Z AUTO 13011KT 10SM CLR 13/M08 A3046 RMK AO2 =
2018-04-23 16:35 METAR KFMH 232035Z AUTO 15011G16KT 10SM CLR 13/M08 A3046 RMK AO2 =
2018-04-23 16:15 METAR KFMH 232015Z AUTO 13010KT 10SM CLR 14/M07 A3046 RMK AO2 =
2018-04-23 15:55 METAR KFMH 231955Z AUTO 14007KT 10SM CLR 14/M06 A3046 RMK AO2 =
2018-04-23 15:35 METAR KFMH 231935Z AUTO 06010KT 10SM CLR 15/M10 A3045 RMK AO2 =
2018-04-23 15:15 METAR KFMH 231915Z AUTO 01007KT 10SM CLR 15/M09 A3046 RMK AO2 =
2018-04-23 14:55 METAR KFMH 231855Z AUTO 05009KT 10SM CLR 15/M09 A3046 RMK AO2 =
2018-04-23 14:35 METAR KFMH 231835Z AUTO 05009KT 10SM CLR 15/M08 A3046 RMK AO2 =
2018-04-23 14:15 METAR KFMH 231815Z AUTO 03008KT 10SM CLR 15/M09 A3047 RMK AO2 =
2018-04-23 13:55 METAR KFMH 231755Z AUTO 02010G17KT 360V060 10SM CLR 15/M09 A3048 RMK AO2 =
2018-04-23 13:35 METAR KFMH 231735Z AUTO 02010KT 10SM CLR 14/M09 A3048 RMK AO2 =
2018-04-23 13:15 METAR KFMH 231715Z AUTO 07008G15KT 040V110 10SM CLR 14/M09 A3048 RMK AO2 =
2018-04-23 12:55 METAR KFMH 231655Z AUTO 06008G13KT 10SM CLR 14/M09 A3049 RMK AO2 =
2018-04-23 12:35 METAR KFMH 231635Z AUTO 01007G12KT 340V050 10SM CLR 14/M09 A3049 RMK AO2 =
2018-04-23 12:15 METAR KFMH 231615Z AUTO 04009KT 010V070 10SM CLR 14/M08 A3049 RMK AO2 =
2018-04-23 11:55 METAR KFMH 231555Z AUTO 04010KT 10SM CLR 13/M08 A3049 RMK AO2 =
2018-04-23 11:35 METAR KFMH 231535Z AUTO 03008G14KT 360V060 10SM CLR 13/M09 A3050 RMK AO2 =
2018-04-23 11:15 METAR KFMH 231515Z AUTO 07010KT 10SM CLR 13/M10 A3051 RMK AO2 =
2018-04-23 10:55 METAR KFMH 231455Z AUTO 05010KT 10SM CLR 13/M09 A3051 RMK AO2 =
2018-04-23 10:35 METAR KFMH 231435Z AUTO 03008KT 360V070 10SM CLR 13/M09 A3051 RMK AO2 =
2018-04-23 10:15 METAR KFMH 231415Z AUTO 03007KT 10SM CLR 12/M09 A3051 RMK AO2 =
2018-04-23 09:55 METAR KFMH 231355Z AUTO 04010KT 10SM CLR 12/M08 A3050 RMK AO2 =
2018-04-23 09:35 METAR KFMH 231335Z AUTO 04008KT 10SM CLR 12/M07 A3050 RMK AO2 =
2018-04-23 09:15 METAR KFMH 231315Z AUTO 02006G12KT 10SM CLR 11/M06 A3050 RMK AO2 =
2018-04-23 08:55 METAR KFMH 231255Z AUTO 01005G14KT 10SM CLR 11/M06 A3049 RMK AO2 =
2018-04-23 08:35 METAR KFMH 231235Z AUTO 02010KT 10SM CLR 10/M06 A3049 RMK AO2 =
2018-04-23 08:15 METAR KFMH 231215Z AUTO 02007KT 10SM CLR 10/M04 A3049 RMK AO2 =
2018-04-23 07:55 METAR KFMH 231155Z AUTO VRB06KT 10SM CLR 09/M03 A3049 RMK AO2 =
2018-04-23 07:35 METAR KFMH 231135Z AUTO 01005KT 10SM CLR 08/M02 A3048 RMK AO2 =
2018-04-23 07:15 METAR KFMH 231115Z AUTO 36005KT 10SM CLR 06/M02 A3048 RMK AO2 =
2018-04-23 06:55 METAR KFMH 231055Z AUTO 01005KT 10SM CLR 05/M02 A3047 RMK AO2 =
2018-04-23 06:35 METAR KFMH 231035Z AUTO 36006KT 10SM CLR 04/M03 A3046 RMK AO2 =
2018-04-23 06:15 METAR KFMH 231015Z AUTO 36005KT 10SM CLR 04/M03 A3045 RMK AO2 =
2018-04-23 05:55 METAR KFMH 230955Z AUTO 35005KT 10SM CLR 04/M03 A3045 RMK AO2 =
2018-04-23 05:35 METAR KFMH 230935Z AUTO 35005KT 10SM CLR 04/M02 A3044 RMK AO2 =
2018-04-23 05:15 METAR KFMH 230915Z AUTO 35005KT 10SM CLR 04/M02 A3043 RMK AO2 =
2018-04-23 04:55 METAR KFMH 230855Z AUTO 35004KT 10SM CLR 04/M02 A3042 RMK AO2 =
2018-04-23 04:35 METAR KFMH 230835Z AUTO 35005KT 10SM 04/M02 A3042 RMK AO2 =

Support USWX by starting your Amazon purchase here.